Time;durP1;ratioP1;P1;durP2;ratioP2;P2;SDS_P1;SDS_P2;PMS_P1;PMS_P2;Temp;Humidity;BMP_temperature;BMP_pressure;BME280_temperature;BME280_humidity;BME280_pressure;Samples;Min_cycle;Max_cycle;Signal;HPM_P1;HPM_P2
2022/01/09 00:00:19;;;;;;;;;;;8.40;99.90;;;;;;4805232;29;20066;-82
2022/01/09 00:02:44;;;;;;;81.85;45.05;;;5.90;99.90;;;;;;4805567;29;19925;-81
2022/01/09 00:05:12;;;;;;;82.50;47.35;;;5.80;99.90;;;;;;4804986;29;20187;-82
2022/01/09 00:07:38;;;;;;;84.40;43.17;;;;;;;;;;4805022;29;20082;-81
2022/01/09 00:10:05;;;;;;;86.43;49.00;;;4.80;99.90;;;;;;4804386;29;20422;-82
2022/01/09 00:12:31;;;;;;;90.55;48.95;;;6.20;99.90;;;;;;4805174;29;20469;-82
2022/01/09 00:14:57;;;;;;;79.18;45.55;;;6.30;99.90;;;;;;4805134;29;20054;-81
2022/01/09 00:17:22;;;;;;;92.63;47.70;;;5.40;99.90;;;;;;4804806;29;20479;-82
2022/01/09 00:19:48;;;;;;;90.10;49.88;;;6.10;99.90;;;;;;4803432;29;20516;-81
2022/01/09 00:22:16;;;;;;;89.70;48.38;;;5.90;99.90;;;;;;4804002;29;20059;-83
2022/01/09 00:24:42;;;;;;;91.20;48.58;;;5.40;99.90;;;;;;4804827;29;20065;-80
2022/01/09 00:27:07;;;;;;;101.88;50.67;;;7.40;99.90;;;;;;4804730;29;20138;-80
2022/01/09 00:29:33;;;;;;;95.13;47.70;;;5.50;99.90;;;;;;4804920;29;20133;-81
2022/01/09 00:31:59;;;;;;;95.78;49.35;;;7.30;99.90;;;;;;4788826;29;20051;-82
2022/01/09 00:34:24;;;;;;;101.50;50.63;;;5.90;99.90;;;;;;4804531;29;20203;-80
2022/01/09 00:36:50;;;;;;;102.93;50.95;;;;;;;;;;4804301;29;20046;-81
2022/01/09 00:39:16;;;;;;;81.82;47.17;;;5.80;99.90;;;;;;4803983;29;20090;-81
2022/01/09 00:41:42;;;;;;;104.90;52.60;;;2.90;99.90;;;;;;4804723;29;20093;-80
2022/01/09 00:44:07;;;;;;;91.65;46.72;;;5.60;99.90;;;;;;4804467;29;20149;-81
2022/01/09 00:46:33;;;;;;;87.55;48.50;;;7.30;99.90;;;;;;4804696;29;20047;-81
2022/01/09 00:49:00;;;;;;;114.78;53.85;;;4.00;99.90;;;;;;4804859;29;20069;-80
2022/01/09 00:51:26;;;;;;;103.63;54.67;;;7.20;99.90;;;;;;4804341;29;20427;-80
2022/01/09 00:53:52;;;;;;;106.70;50.72;;;7.10;99.90;;;;;;4803511;29;20371;-80
2022/01/09 00:56:17;;;;;;;86.65;50.20;;;8.70;99.90;;;;;;4804158;29;20138;-82
2022/01/09 00:58:43;;;;;;;93.20;48.85;;;5.70;99.90;;;;;;4804635;29;20127;-81
2022/01/09 01:01:09;;;;;;;95.32;53.95;;;4.90;99.90;;;;;;4804307;29;20070;-81
2022/01/09 01:03:35;;;;;;;96.75;50.25;;;6.10;99.90;;;;;;4804563;29;20051;-81
2022/01/09 01:06:01;;;;;;;106.65;53.58;;;5.60;99.90;;;;;;4804411;29;20342;-81
2022/01/09 01:08:27;;;;;;;140.45;57.88;;;;;;;;;;4803742;29;20082;-80
2022/01/09 01:10:52;;;;;;;157.23;61.88;;;6.00;99.90;;;;;;4787909;29;20054;-80
2022/01/09 01:13:18;;;;;;;135.80;59.40;;;5.20;99.90;;;;;;4804042;29;20061;-80
2022/01/09 01:15:44;;;;;;;139.77;59.97;;;7.30;99.90;;;;;;4788106;29;20144;-80
2022/01/09 01:18:09;;;;;;;123.88;57.72;;;4.30;99.90;;;;;;4787634;29;20057;-81
2022/01/09 01:20:35;;;;;;;112.20;54.63;;;6.00;99.90;;;;;;4804147;29;20103;-80
2022/01/09 01:23:01;;;;;;;118.10;52.97;;;8.50;99.90;;;;;;4803872;29;20458;-80
2022/01/09 01:25:27;;;;;;;108.85;56.75;;;7.50;99.90;;;;;;4803370;29;20519;-80
2022/01/09 01:27:53;;;;;;;145.63;62.42;;;5.60;99.90;;;;;;4804315;29;20137;-80
2022/01/09 01:30:19;;;;;;;111.55;55.25;;;6.50;99.90;;;;;;4802923;29;20059;-80
2022/01/09 01:32:45;;;;;;;100.53;52.58;;;8.10;99.90;;;;;;4803918;29;20450;-81
2022/01/09 01:35:11;;;;;;;86.25;50.97;;;7.80;99.90;;;;;;4803409;29;20047;-81
2022/01/09 01:37:41;;;;;;;99.70;51.35;;;5.70;99.90;;;;;;4803865;29;20051;-81
2022/01/09 01:40:09;;;;;;;120.78;54.45;;;5.40;99.90;;;;;;4803530;29;20077;-80
2022/01/09 01:42:35;;;;;;;107.18;54.45;;;;;;;;;;4804064;29;20050;-80
2022/01/09 01:45:01;;;;;;;105.28;56.13;;;5.90;99.90;;;;;;4786155;30;20138;-80
2022/01/09 01:47:27;;;;;;;191.48;63.00;;;7.50;99.90;;;;;;4785653;30;20064;-80
2022/01/09 01:49:53;;;;;;;118.03;55.47;;;7.30;99.90;;;;;;4769447;30;20055;-81
2022/01/09 01:52:28;;;;;;;138.98;60.20;;;7.20;99.90;;;;;;4785056;30;20062;-80
2022/01/09 01:54:54;;;;;;;142.38;59.00;;;6.60;99.90;;;;;;4785594;30;20418;-80
2022/01/09 01:57:20;;;;;;;149.32;61.50;;;5.50;99.90;;;;;;4785289;30;20199;-80
2022/01/09 01:59:46;;;;;;;150.77;60.60;;;6.20;99.90;;;;;;4784239;30;20515;-80
2022/01/09 02:02:12;;;;;;;141.73;58.10;;;8.10;99.90;;;;;;4785547;30;20059;-80
2022/01/09 02:04:37;;;;;;;135.93;58.85;;;8.50;99.90;;;;;;4785799;30;20449;-80
2022/01/09 02:07:04;;;;;;;135.35;54.60;;;6.30;99.90;;;;;;4785645;30;20059;-80
2022/01/09 02:09:29;;;;;;;165.57;57.33;;;6.10;99.90;;;;;;4784891;30;20055;-80
2022/01/09 02:11:55;;;;;;;118.90;50.70;;;6.00;99.90;;;;;;4785758;30;20387;-80
2022/01/09 02:14:21;;;;;;;134.18;53.95;;;6.60;99.90;;;;;;4786640;29;20051;-80
2022/01/09 02:16:51;;;;;;;124.32;52.03;;;5.60;99.90;;;;;;4803571;29;20070;-80
2022/01/09 02:19:20;;;;;;;136.27;53.10;;;4.80;99.90;;;;;;4803443;29;20154;-80
2022/01/09 02:21:46;;;;;;;120.20;49.33;;;6.30;99.90;;;;;;4794271;29;20054;-80
2022/01/09 02:24:12;;;;;;;122.10;49.05;;;5.80;99.90;;;;;;4803495;29;20107;-80
2022/01/09 02:26:39;;;;;;;128.10;47.25;;;5.40;99.90;;;;;;4803852;29;20047;-82
2022/01/09 02:29:05;;;;;;;136.73;47.08;;;6.50;99.90;;;;;;4803785;29;20055;-80
2022/01/09 02:31:32;;;;;;;113.35;42.92;;;5.60;99.90;;;;;;4803340;29;20051;-80
2022/01/09 02:33:58;;;;;;;134.00;43.67;;;;;;;;;;4803698;29;20378;-79
2022/01/09 02:36:24;;;;;;;158.77;48.55;;;6.10;99.90;;;;;;4803264;29;20047;-78
2022/01/09 02:38:50;;;;;;;158.73;45.88;;;5.60;99.90;;;;;;4802785;29;20058;-79
2022/01/09 02:41:15;;;;;;;162.68;45.72;;;8.90;99.90;;;;;;4803006;29;20043;-79
2022/01/09 02:43:41;;;;;;;113.82;39.78;;;8.20;99.90;;;;;;4803492;29;20134;-79
2022/01/09 02:46:16;;;;;;;99.47;38.97;;;6.70;99.90;;;;;;4803466;29;20046;-79
2022/01/09 02:48:42;;;;;;;83.53;33.40;;;6.60;99.90;;;;;;4803142;29;20130;-79
2022/01/09 02:51:13;;;;;;;82.40;33.13;;;4.90;99.90;;;;;;4803676;29;20051;-79
2022/01/09 02:53:40;;;;;;;97.28;31.75;;;8.00;99.90;;;;;;4802400;29;20054;-80
2022/01/09 02:56:07;;;;;;;101.70;31.40;;;8.70;99.90;;;;;;4803583;29;20057;-79
2022/01/09 02:58:34;;;;;;;109.28;32.65;;;7.60;99.90;;;;;;4800749;29;20302;-79
2022/01/09 03:01:01;;;;;;;81.80;28.23;;;6.70;99.90;;;;;;4803587;29;20135;-80
2022/01/09 03:03:27;;;;;;;103.65;28.95;;;6.60;99.90;;;;;;4806093;29;20497;-79
2022/01/09 03:05:53;;;;;;;79.32;25.45;;;7.80;99.90;;;;;;4806639;29;20051;-79
2022/01/09 03:08:19;;;;;;;103.80;27.30;;;6.80;99.90;;;;;;4805923;29;20137;-80
2022/01/09 03:10:45;;;;;;;94.90;25.13;;;9.50;99.90;;;;;;4806054;29;20086;-79
2022/01/09 03:13:10;;;;;;;70.53;22.45;;;6.10;99.90;;;;;;4806390;29;20047;-80
2022/01/09 03:15:36;;;;;;;79.30;21.48;;;6.80;99.90;;;;;;4805686;29;20475;-80
2022/01/09 03:18:03;;;;;;;95.57;21.30;;;7.50;99.90;;;;;;4806402;29;20058;-79
2022/01/09 03:20:29;;;;;;;81.32;20.73;;;6.50;99.90;;;;;;4806118;29;20051;-79
2022/01/09 03:22:56;;;;;;;82.80;19.15;;;7.60;99.90;;;;;;4806099;29;20042;-79
2022/01/09 03:25:23;;;;;;;68.68;17.70;;;6.40;99.90;;;;;;4805751;29;20581;-79
2022/01/09 03:27:49;;;;;;;66.87;16.00;;;7.30;99.90;;;;;;4806072;29;20058;-79
2022/01/09 03:30:17;;;;;;;94.25;17.80;;;8.90;99.90;;;;;;4806085;29;20055;-79
2022/01/09 03:32:43;;;;;;;73.32;15.23;;;6.40;99.90;;;;;;4805959;29;20059;-79
2022/01/09 03:35:12;;;;;;;80.78;14.63;;;8.80;99.90;;;;;;4806213;29;20053;-79
2022/01/09 03:37:39;;;;;;;85.18;14.93;;;6.20;99.90;;;;;;4789138;29;20075;-81
2022/01/09 03:40:06;;;;;;;119.38;15.02;;;9.10;99.90;;;;;;4805657;29;20452;-79
2022/01/09 03:42:32;;;;;;;75.82;12.32;;;6.50;99.90;;;;;;4805700;29;20403;-79
2022/01/09 03:44:58;;;;;;;66.47;11.50;;;7.30;99.90;;;;;;4805894;29;20065;-79
2022/01/09 03:47:24;;;;;;;94.50;12.25;;;8.50;99.90;;;;;;4805605;29;20046;-82
2022/01/09 03:49:50;;;;;;;77.95;11.27;;;7.30;99.90;;;;;;4805792;29;20047;-80
2022/01/09 03:52:17;;;;;;;90.03;10.82;;;7.00;99.90;;;;;;4805677;29;20121;-80
2022/01/09 03:54:43;;;;;;;74.57;10.60;;;6.70;99.90;;;;;;4804829;29;20152;-79
2022/01/09 03:57:09;;;;;;;92.38;11.25;;;7.30;99.90;;;;;;4805633;29;20050;-79
2022/01/09 03:59:35;;;;;;;86.82;10.25;;;7.40;99.90;;;;;;4805103;29;20046;-80
2022/01/09 04:02:01;;;;;;;78.55;10.13;;;7.20;99.90;;;;;;4805076;29;20133;-80
2022/01/09 04:04:27;;;;;;;85.45;10.00;;;7.80;99.90;;;;;;4805385;29;20055;-80
2022/01/09 04:06:53;;;;;;;96.65;9.68;;;7.20;99.90;;;;;;4805250;29;20520;-79
2022/01/09 04:09:21;;;;;;;105.40;9.95;;;8.00;99.90;;;;;;4805263;29;20089;-80
2022/01/09 04:11:49;;;;;;;92.95;10.13;;;9.60;99.90;;;;;;4804452;29;20054;-80
2022/01/09 04:14:15;;;;;;;95.88;9.95;;;9.70;99.90;;;;;;4805504;29;20116;-80
2022/01/09 04:16:42;;;;;;;72.55;8.70;;;7.70;99.90;;;;;;4804599;29;20520;-80
2022/01/09 04:19:13;;;;;;;102.90;10.03;;;7.80;99.90;;;;;;4805293;29;20051;-80
2022/01/09 04:21:42;;;;;;;88.40;10.82;;;8.80;99.90;;;;;;4802543;29;20129;-82
2022/01/09 04:24:09;;;;;;;88.90;9.60;;;8.00;99.90;;;;;;4804652;29;20090;-80
2022/01/09 04:26:35;;;;;;;79.30;8.32;;;7.90;99.90;;;;;;4804994;29;20470;-80
2022/01/09 04:29:01;;;;;;;100.00;9.57;;;;;;;;;;4804878;29;20130;-79
2022/01/09 04:31:27;;;;;;;96.97;9.40;;;7.60;99.90;;;;;;4805077;29;20050;-81
2022/01/09 04:33:52;;;;;;;83.95;8.70;;;7.60;99.90;;;;;;4804904;29;20199;-80
2022/01/09 04:36:18;;;;;;;83.53;8.43;;;7.10;99.90;;;;;;4804971;29;20486;-80
2022/01/09 04:38:44;;;;;;;70.88;8.35;;;7.20;99.90;;;;;;4787743;29;20054;-80
2022/01/09 04:41:09;;;;;;;67.55;8.30;;;8.00;99.90;;;;;;4804917;29;20489;-81
2022/01/09 04:43:35;;;;;;;76.72;8.25;;;8.30;99.90;;;;;;4804532;29;20047;-80
2022/01/09 04:46:01;;;;;;;80.97;8.93;;;9.10;99.90;;;;;;4804966;29;20171;-81
2022/01/09 04:48:26;;;;;;;83.40;8.73;;;7.00;99.90;;;;;;4804890;29;20131;-80
2022/01/09 04:50:53;;;;;;;74.07;8.27;;;7.10;99.90;;;;;;4804339;29;20086;-81
2022/01/09 04:53:19;;;;;;;66.18;8.10;;;8.00;99.90;;;;;;4804255;29;20070;-81
2022/01/09 04:55:49;;;;;;;74.68;9.20;;;7.10;99.90;;;;;;4803783;29;20046;-81
2022/01/09 04:58:18;;;;;;;69.03;8.07;;;10.10;99.90;;;;;;4804776;29;20054;-80
2022/01/09 05:00:44;;;;;;;76.60;7.20;;;7.20;99.90;;;;;;4804251;29;20500;-80
2022/01/09 05:03:13;;;;;;;67.35;7.45;;;7.80;99.90;;;;;;4804753;29;20122;-80
2022/01/09 05:05:39;;;;;;;63.60;7.60;;;8.70;99.90;;;;;;4788237;29;20393;-80
2022/01/09 05:08:05;;;;;;;61.70;7.72;;;6.80;99.90;;;;;;4804190;29;20086;-80
2022/01/09 05:10:31;;;;;;;63.03;6.82;;;7.30;99.90;;;;;;4804324;29;20452;-80
2022/01/09 05:12:56;;;;;;;61.60;6.82;;;7.40;99.90;;;;;;4803980;29;20073;-80
2022/01/09 05:15:23;;;;;;;63.05;7.63;;;8.00;99.90;;;;;;4804091;29;20408;-81
2022/01/09 05:17:53;;;;;;;69.40;7.75;;;7.10;99.90;;;;;;4803397;29;20553;-82
2022/01/09 05:20:19;;;;;;;60.75;6.07;;;9.50;99.90;;;;;;4803080;29;20476;-80
2022/01/09 05:22:44;;;;;;;54.33;6.60;;;7.40;99.90;;;;;;4803609;29;20070;-80
2022/01/09 05:25:10;;;;;;;64.13;8.18;;;7.00;99.90;;;;;;4803185;29;20138;-80
2022/01/09 05:27:38;;;;;;;59.88;6.78;;;7.40;99.90;;;;;;4804122;29;20050;-81
2022/01/09 05:30:05;;;;;;;65.47;7.03;;;10.30;99.90;;;;;;4804127;29;20409;-82
2022/01/09 05:32:31;;;;;;;60.72;6.53;;;6.70;99.90;;;;;;4804476;29;20054;-80
2022/01/09 05:34:57;;;;;;;75.05;6.63;;;;;;;;;;4803440;29;20055;-80
2022/01/09 05:37:22;;;;;;;60.20;5.97;;;6.60;99.90;;;;;;4803859;29;20062;-81
2022/01/09 05:39:48;;;;;;;72.32;6.70;;;8.20;99.90;;;;;;4803437;29;20199;-80
2022/01/09 05:42:14;;;;;;;51.65;6.38;;;6.90;99.90;;;;;;4804032;29;20549;-80
2022/01/09 05:44:40;;;;;;;64.15;6.50;;;7.70;99.90;;;;;;4787618;29;20141;-83
2022/01/09 05:47:06;;;;;;;54.90;6.10;;;7.10;99.90;;;;;;4804013;29;20184;-81
2022/01/09 05:49:32;;;;;;;52.45;5.70;;;6.40;99.90;;;;;;4788120;29;20105;-81
2022/01/09 05:51:57;;;;;;;44.75;5.85;;;5.90;99.90;;;;;;4802948;29;20115;-81
2022/01/09 05:54:24;;;;;;;56.95;6.30;;;6.20;99.90;;;;;;4803716;29;20058;-80
2022/01/09 05:56:51;;;;;;;50.45;6.15;;;;;;;;;;4803531;29;20155;-80
2022/01/09 05:59:18;;;;;;;47.40;5.22;;;6.20;99.90;;;;;;4804043;29;20051;-81
2022/01/09 06:01:44;;;;;;;57.22;6.45;;;5.70;99.90;;;;;;4803547;29;20065;-81
2022/01/09 06:04:10;;;;;;;45.88;5.45;;;8.30;99.90;;;;;;4787727;29;20055;-80
2022/01/09 06:06:35;;;;;;;45.38;5.57;;;7.30;99.90;;;;;;4803957;29;20051;-82
2022/01/09 06:09:01;;;;;;;47.70;5.25;;;7.60;99.90;;;;;;4802760;29;20055;-81
2022/01/09 06:11:27;;;;;;;44.75;5.03;;;7.70;99.90;;;;;;4804296;29;20055;-81
2022/01/09 06:13:52;;;;;;;43.28;4.72;;;7.90;99.90;;;;;;4803224;29;20145;-81
2022/01/09 06:16:18;;;;;;;58.13;5.65;;;9.20;99.90;;;;;;4801895;29;20133;-82
2022/01/09 06:18:44;;;;;;;52.20;6.15;;;6.90;99.90;;;;;;4772501;29;20082;-81
2022/01/09 06:21:09;;;;;;;42.70;5.32;;;6.10;99.90;;;;;;4801851;29;20057;-85
2022/01/09 06:23:35;;;;;;;43.67;5.43;;;9.10;99.90;;;;;;4797480;29;20439;-81
2022/01/09 06:26:01;;;;;;;46.42;5.80;;;8.90;99.90;;;;;;4801939;29;20058;-81
2022/01/09 06:28:26;;;;;;;47.65;5.93;;;7.00;99.90;;;;;;4803723;29;20520;-81
2022/01/09 06:30:52;;;;;;;47.70;5.20;;;6.40;99.90;;;;;;4786766;29;20101;-81
2022/01/09 06:33:18;;;;;;;49.28;5.80;;;8.70;99.90;;;;;;4803095;29;20055;-81
2022/01/09 06:35:44;;;;;;;46.55;5.22;;;7.00;99.90;;;;;;4788585;29;20046;-81
2022/01/09 06:38:10;;;;;;;46.42;4.78;;;8.80;99.90;;;;;;4806772;29;20481;-81
2022/01/09 06:40:36;;;;;;;73.10;6.47;;;6.70;99.90;;;;;;4806575;29;20054;-82
2022/01/09 06:43:03;;;;;;;62.03;6.53;;;8.40;99.90;;;;;;4806350;29;20126;-81
2022/01/09 06:45:28;;;;;;;51.78;5.47;;;8.60;99.90;;;;;;4806972;29;20050;-81
2022/01/09 06:47:56;;;;;;;51.55;6.40;;;4.90;99.90;;;;;;4806260;29;20480;-81
2022/01/09 06:50:23;;;;;;;56.57;5.50;;;8.00;99.90;;;;;;4806572;29;20099;-83
2022/01/09 06:52:49;;;;;;;37.25;5.25;;;4.90;99.90;;;;;;4805686;29;20786;-82
2022/01/09 06:55:15;;;;;;;46.20;4.88;;;6.30;99.90;;;;;;4806232;29;20108;-81
2022/01/09 06:57:41;;;;;;;44.22;4.97;;;8.60;99.90;;;;;;4806890;29;20420;-82
2022/01/09 07:00:09;;;;;;;40.15;4.57;;;5.20;99.90;;;;;;4806198;29;20590;-81
2022/01/09 07:02:36;;;;;;;42.25;5.32;;;5.90;99.90;;;;;;4806794;29;20055;-82
2022/01/09 07:05:02;;;;;;;43.88;4.93;;;4.90;99.90;;;;;;4806041;29;20063;-82
2022/01/09 07:07:27;;;;;;;33.00;4.20;;;7.60;99.90;;;;;;4806291;29;20051;-81
2022/01/09 07:09:53;;;;;;;38.65;4.68;;;6.40;99.90;;;;;;4805772;29;20051;-84
2022/01/09 07:12:19;;;;;;;37.20;4.55;;;;;;;;;;4806505;29;20098;-82
2022/01/09 07:14:45;;;;;;;38.83;4.95;;;;;;;;;;4805944;29;20050;-82
2022/01/09 07:17:11;;;;;;;29.88;5.03;;;6.40;99.90;;;;;;4789559;29;20417;-82
2022/01/09 07:19:37;;;;;;;41.80;5.57;;;;;;;;;;4806375;29;20054;-83
2022/01/09 07:22:04;;;;;;;41.58;5.38;;;6.60;99.90;;;;;;4805570;29;20213;-82
2022/01/09 07:24:30;;;;;;;50.05;5.10;;;;;;;;;;4805856;29;20050;-83
2022/01/09 07:26:56;;;;;;;39.85;4.60;;;5.20;99.90;;;;;;4805938;29;20369;-82
2022/01/09 07:29:22;;;;;;;56.42;5.82;;;8.40;99.90;;;;;;4806185;29;20125;-82
2022/01/09 07:31:51;;;;;;;51.83;5.28;;;8.20;99.90;;;;;;4805683;29;20051;-83
2022/01/09 07:34:20;;;;;;;48.55;5.43;;;7.10;99.90;;;;;;4805983;29;20119;-82
2022/01/09 07:36:47;;;;;;;43.60;5.00;;;6.20;99.90;;;;;;4789046;29;20058;-84
2022/01/09 07:39:12;;;;;;;34.17;5.00;;;7.40;99.90;;;;;;4805698;29;20051;-83
2022/01/09 07:41:39;;;;;;;43.55;4.90;;;5.70;99.90;;;;;;4805809;29;20054;-85
2022/01/09 07:44:05;;;;;;;34.33;4.53;;;9.10;99.90;;;;;;4805689;29;20241;-83
2022/01/09 07:46:31;;;;;;;45.30;4.78;;;6.20;99.90;;;;;;4805442;29;20050;-83
2022/01/09 07:48:58;;;;;;;37.65;4.75;;;6.20;99.90;;;;;;4805172;29;20066;-83
2022/01/09 07:51:24;;;;;;;33.83;4.75;;;;;;;;;;4805638;29;20107;-82
2022/01/09 07:53:50;;;;;;;29.38;4.28;;;5.60;99.90;;;;;;4804517;29;20523;-82
2022/01/09 07:56:15;;;;;;;33.47;4.13;;;8.70;99.90;;;;;;4805666;29;20046;-83
2022/01/09 07:58:42;;;;;;;30.10;4.50;;;;;;;;;;4805690;29;20051;-83
2022/01/09 08:01:07;;;;;;;31.02;4.25;;;3.80;99.90;;;;;;4804860;29;20067;-85
2022/01/09 08:03:36;;;;;;;37.63;4.00;;;;;;;;;;4789570;29;20058;-83
2022/01/09 08:06:03;;;;;;;41.72;5.18;;;6.30;99.90;;;;;;4805253;29;20050;-83
2022/01/09 08:08:28;;;;;;;29.67;4.47;;;8.20;99.90;;;;;;4805232;29;20362;-83
2022/01/09 08:10:55;;;;;;;22.90;3.38;;;6.80;99.90;;;;;;4804658;29;20534;-83
2022/01/09 08:13:20;;;;;;;26.40;3.55;;;7.60;99.90;;;;;;4803965;29;20501;-83
2022/01/09 08:15:47;;;;;;;27.33;3.72;;;7.50;99.90;;;;;;4805030;29;20042;-82
2022/01/09 08:18:13;;;;;;;31.40;4.15;;;7.50;99.90;;;;;;4805206;29;20062;-83
2022/01/09 08:20:38;;;;;;;29.67;3.95;;;7.60;99.90;;;;;;4789024;29;20078;-82
2022/01/09 08:23:04;;;;;;;35.05;3.85;;;6.00;99.90;;;;;;4801918;29;20089;-83
2022/01/09 08:25:30;;;;;;;23.63;4.00;;;8.30;99.90;;;;;;4804607;29;20042;-82
2022/01/09 08:27:56;;;;;;;23.23;3.42;;;5.90;99.90;;;;;;4804815;29;20046;-83
2022/01/09 08:30:22;;;;;;;27.27;3.90;;;6.70;99.90;;;;;;4804937;29;20069;-83
2022/01/09 08:32:51;;;;;;;32.22;4.20;;;6.50;99.90;;;;;;4804858;29;20506;-83
2022/01/09 08:35:18;;;;;;;35.45;3.70;;;;;;;;;;4804833;29;20054;-83
2022/01/09 08:37:44;;;;;;;30.63;4.28;;;5.30;99.90;;;;;;4804719;29;20061;-83
2022/01/09 08:40:13;;;;;;;42.95;4.15;;;8.10;99.90;;;;;;4804051;29;20450;-82
2022/01/09 08:42:40;;;;;;;29.35;4.20;;;6.60;99.90;;;;;;4805184;29;20145;-82
2022/01/09 08:45:06;;;;;;;33.30;4.33;;;7.40;99.90;;;;;;4804418;29;20047;-82
2022/01/09 08:47:36;;;;;;;35.95;4.65;;;6.00;99.90;;;;;;4805030;29;20063;-82
2022/01/09 08:50:04;;;;;;;45.63;4.97;;;7.10;99.90;;;;;;4804304;29;20055;-82
2022/01/09 08:52:30;;;;;;;28.92;4.30;;;6.30;99.90;;;;;;4804530;29;20047;-82
2022/01/09 08:54:56;;;;;;;42.38;4.10;;;5.80;99.90;;;;;;4804013;29;20051;-82
2022/01/09 08:57:24;;;;;;;43.08;4.60;;;7.20;99.90;;;;;;4804239;29;20055;-82
2022/01/09 08:59:49;;;;;;;24.15;3.58;;;6.90;99.90;;;;;;4803411;29;20063;-82
2022/01/09 09:02:15;;;;;;;32.25;4.50;;;5.70;99.90;;;;;;4803790;29;20123;-83
2022/01/09 09:04:41;;;;;;;39.83;5.20;;;5.60;99.90;;;;;;4804143;29;20046;-82
2022/01/09 09:07:06;;;;;;;36.63;4.35;;;8.10;99.90;;;;;;4803519;29;20050;-82
2022/01/09 09:09:33;;;;;;;27.70;5.13;;;;;;;;;;4788227;29;20058;-82
2022/01/09 09:11:58;;;;;;;40.75;5.43;;;6.60;99.90;;;;;;4803711;29;20615;-83
2022/01/09 09:14:24;;;;;;;40.67;4.55;;;6.70;99.90;;;;;;4788387;29;20090;-82
2022/01/09 09:16:50;;;;;;;28.23;4.53;;;;;;;;;;4804314;29;20086;-82
2022/01/09 09:19:16;;;;;;;31.92;4.53;;;5.30;99.90;;;;;;4787948;29;20054;-83
2022/01/09 09:21:43;;;;;;;33.50;4.95;;;6.80;99.90;;;;;;4804207;29;20131;-85
2022/01/09 09:24:09;;;;;;;32.65;4.78;;;5.20;99.90;;;;;;4803470;29;20134;-81
2022/01/09 09:26:34;;;;;;;26.75;4.60;;;8.50;99.90;;;;;;4804259;29;20122;-83
2022/01/09 09:29:00;;;;;;;34.40;4.95;;;7.00;99.90;;;;;;4803483;29;20082;-82
2022/01/09 09:31:26;;;;;;;30.20;4.30;;;6.70;99.90;;;;;;4788101;29;20085;-82
2022/01/09 09:33:51;;;;;;;18.65;3.53;;;7.20;99.90;;;;;;4804196;29;20054;-81
2022/01/09 09:36:17;;;;;;;30.52;3.95;;;6.80;99.90;;;;;;4787569;29;20054;-83
2022/01/09 09:38:43;;;;;;;30.20;3.95;;;6.90;99.90;;;;;;4803196;29;20105;-82
2022/01/09 09:41:08;;;;;;;25.67;3.90;;;6.30;99.90;;;;;;4803585;29;20489;-82
2022/01/09 09:43:34;;;;;;;25.00;3.80;;;8.10;99.90;;;;;;4804152;29;20051;-82
2022/01/09 09:46:00;;;;;;;22.40;3.22;;;6.60;99.90;;;;;;4803615;29;20448;-82
2022/01/09 09:48:26;;;;;;;19.05;3.08;;;6.20;99.90;;;;;;4804246;29;20061;-82
2022/01/09 09:50:52;;;;;;;21.00;3.38;;;9.00;99.90;;;;;;4804120;29;20051;-82
2022/01/09 09:53:18;;;;;;;17.15;3.05;;;7.00;99.90;;;;;;4803051;29;20430;-81
2022/01/09 09:55:45;;;;;;;26.48;3.20;;;6.60;99.90;;;;;;4803357;29;20047;-81
2022/01/09 09:58:11;;;;;;;26.90;3.53;;;7.40;99.90;;;;;;4787490;29;20062;-82
2022/01/09 10:00:37;;;;;;;18.63;3.17;;;6.50;99.90;;;;;;4803861;29;20399;-82
2022/01/09 10:03:03;;;;;;;23.05;3.20;;;6.00;99.90;;;;;;4787201;29;20131;-82
2022/01/09 10:05:39;;;;;;;17.40;3.40;;;8.40;99.90;;;;;;4803697;29;20055;-81
2022/01/09 10:08:15;;;;;;;26.85;3.88;;;6.60;99.90;;;;;;4803210;29;20395;-82
2022/01/09 10:10:41;;;;;;;20.20;3.35;;;6.50;99.90;;;;;;4805521;29;20119;-84
2022/01/09 10:13:11;;;;;;;31.65;3.72;;;5.30;99.90;;;;;;4807323;29;20054;-82
2022/01/09 10:15:51;;;;;;;28.20;3.55;;;6.80;99.90;;;;;;4807432;29;20177;-82
2022/01/09 10:18:39;;;;;;;26.67;3.33;;;5.90;99.90;;;;;;4807022;29;20134;-82
2022/01/09 10:21:07;;;;;;;19.85;3.13;;;4.80;99.90;;;;;;4806649;29;20054;-82
2022/01/09 10:23:33;;;;;;;20.00;2.97;;;7.70;99.90;;;;;;4804583;29;20065;-86
2022/01/09 10:26:11;;;;;;;25.55;3.22;;;7.80;99.90;;;;;;4806836;29;20054;-81
2022/01/09 10:28:38;;;;;;;22.60;3.10;;;5.90;99.90;;;;;;4807249;29;20433;-83
2022/01/09 10:31:14;;;;;;;21.75;2.80;;;6.30;99.90;;;;;;4806795;29;20061;-82
2022/01/09 10:33:40;;;;;;;18.23;3.17;;;7.00;99.90;;;;;;4807159;29;20050;-83
2022/01/09 10:36:05;;;;;;;14.95;2.60;;;6.80;99.90;;;;;;4806694;29;20069;-82
2022/01/09 10:38:31;;;;;;;14.27;2.58;;;6.70;99.90;;;;;;4806574;29;20085;-81
2022/01/09 10:41:03;;;;;;;17.55;2.65;;;6.80;99.90;;;;;;4806417;29;20054;-82
2022/01/09 10:43:41;;;;;;;18.73;3.00;;;7.60;99.90;;;;;;4807102;29;20105;-83
2022/01/09 10:46:08;;;;;;;17.30;2.75;;;8.90;99.90;;;;;;4806706;29;20401;-82
2022/01/09 10:48:43;;;;;;;18.23;2.85;;;6.70;99.90;;;;;;4807073;29;20061;-83
2022/01/09 10:51:11;;;;;;;18.77;3.47;;;6.30;99.90;;;;;;4790175;29;20485;-82
2022/01/09 10:53:38;;;;;;;21.50;3.17;;;7.30;99.90;;;;;;4806159;29;20054;-84
2022/01/09 10:56:21;;;;;;;22.23;2.75;;;6.90;99.90;;;;;;4806327;29;20042;-88
2022/01/09 10:58:54;;;;;;;25.98;4.03;;;5.90;99.90;;;;;;4806470;29;20501;-83
2022/01/09 11:01:23;;;;;;;20.92;3.40;;;7.00;99.90;;;;;;4805937;29;20059;-83
2022/01/09 11:03:55;;;;;;;20.10;3.17;;;8.40;99.90;;;;;;4806804;29;20058;-82
2022/01/09 11:06:22;;;;;;;25.80;3.45;;;9.60;99.90;;;;;;4790234;29;20053;-83
2022/01/09 11:08:49;;;;;;;24.67;3.93;;;7.20;99.90;;;;;;4805505;29;20057;-82
2022/01/09 11:13:48;;;;;;;22.83;3.30;;;7.70;99.90;;;;;;4806573;29;20054;-82
2022/01/09 11:16:33;;;;;;;28.85;4.05;;;6.70;99.90;;;;;;4805260;29;20054;-81
2022/01/09 11:19:14;;;;;;;17.48;3.00;;;9.30;99.90;;;;;;4805883;29;20057;-82
2022/01/09 11:21:48;;;;;;;23.52;3.95;;;8.80;99.90;;;;;;4803352;29;20046;-85
2022/01/09 11:24:46;;;;;;;27.92;3.63;;;6.80;99.90;;;;;;4805019;29;20054;-82
2022/01/09 11:27:22;;;;;;;27.67;3.53;;;6.90;99.90;;;;;;4809703;29;20055;-83
2022/01/09 11:29:53;;;;;;;30.50;4.20;;;7.00;99.90;;;;;;4804570;29;20077;-82
2022/01/09 11:32:42;;;;;;;19.85;3.60;;;7.30;99.90;;;;;;4812109;29;20146;-82
2022/01/09 11:35:38;;;;;;;31.55;3.90;;;7.70;99.90;;;;;;4793841;29;20412;-82
2022/01/09 11:38:22;;;;;;;26.38;3.55;;;6.90;99.90;;;;;;4804856;29;20076;-83
2022/01/09 11:40:48;;;;;;;26.85;4.03;;;7.00;99.90;;;;;;4810749;29;20154;-84
2022/01/09 11:43:16;;;;;;;28.05;3.97;;;6.40;99.90;;;;;;4772768;29;20141;-83
2022/01/09 11:45:50;;;;;;;17.33;2.97;;;8.10;99.90;;;;;;4789611;29;20054;-83
2022/01/09 11:48:39;;;;;;;19.17;3.33;;;6.80;99.90;;;;;;4787725;29;20050;-83
2022/01/09 11:51:05;;;;;;;27.00;3.50;;;7.80;99.90;;;;;;4804080;29;20058;-84
2022/01/09 11:53:59;;;;;;;17.25;3.17;;;8.10;99.90;;;;;;4804312;29;20054;-84
2022/01/09 11:56:55;;;;;;;22.70;3.13;;;6.80;99.90;;;;;;4787937;29;20520;-83
2022/01/09 11:59:27;;;;;;;20.10;3.20;;;8.00;99.90;;;;;;4769938;29;20055;-86
2022/01/09 12:02:00;;;;;;;30.70;3.00;;;7.50;99.90;;;;;;4805179;29;20066;-83
2022/01/09 12:04:34;;;;;;;17.63;3.15;;;7.30;99.90;;;;;;4805226;29;20131;-83
2022/01/09 12:07:01;;;;;;;18.52;2.83;;;9.50;99.90;;;;;;4803427;29;20050;-83
2022/01/09 12:09:36;;;;;;;12.50;2.75;;;7.60;99.90;;;;;;4803820;29;20482;-87
2022/01/09 12:12:10;;;;;;;18.58;2.97;;;7.20;99.90;;;;;;4788619;29;20568;-82
2022/01/09 12:14:42;;;;;;;20.75;3.35;;;7.40;99.90;;;;;;4804749;29;20058;-82
2022/01/09 12:17:28;;;;;;;26.65;3.00;;;8.80;99.90;;;;;;4804672;29;20107;-84
2022/01/09 12:20:22;;;;;;;21.77;3.17;;;8.90;99.90;;;;;;4806328;29;20062;-82
2022/01/09 12:23:00;;;;;;;18.42;3.30;;;7.40;99.90;;;;;;4803678;29;20057;-82
2022/01/09 12:25:26;;;;;;;;;;;7.20;99.90;;;;;;4792255;29;20183;-82
2022/01/09 12:28:02;;;;;;;16.60;2.20;;;7.10;99.90;;;;;;4805116;29;20024;-83
2022/01/09 12:30:33;;;;;;;26.35;3.60;;;7.00;99.90;;;;;;4806711;29;20510;-83
2022/01/09 12:33:00;;;;;;;24.13;3.05;;;7.00;99.90;;;;;;4803957;29;20066;-84
2022/01/09 12:35:26;;;;;;;19.40;2.78;;;7.20;99.90;;;;;;4814757;29;20058;-83
2022/01/09 12:38:00;;;;;;;18.08;2.92;;;9.10;99.90;;;;;;4805936;29;20057;-83
2022/01/09 12:40:35;;;;;;;18.88;3.30;;;7.40;99.90;;;;;;4809421;29;20046;-82
2022/01/09 12:43:03;;;;;;;17.50;3.60;;;6.80;99.90;;;;;;4823342;29;20062;-83
2022/01/09 12:45:35;;;;;;;24.60;3.08;;;9.80;99.90;;;;;;4809999;29;20122;-82
2022/01/09 12:48:03;;;;;;;16.83;3.45;;;7.10;99.90;;;;;;4804392;29;20052;-82
2022/01/09 12:50:36;;;;;;;22.92;3.33;;;8.80;99.90;;;;;;4807267;29;20061;-80
2022/01/09 12:53:22;;;;;;;20.30;3.15;;;7.50;99.90;;;;;;4803687;29;20049;-83